Time;durP1;ratioP1;P1;durP2;ratioP2;P2;SDS_P1;SDS_P2;PMS_P1;PMS_P2;Temp;Humidity;BMP_temperature;BMP_pressure;BME280_temperature;BME280_humidity;BME280_pressure;Samples;Min_cycle;Max_cycle;Signal;HPM_P1;HPM_P2
2021/06/28 00:00:17;;;;;;;;;;;;;;;20.53;100.00;95872.47;1049200;28;19916;-77
2021/06/28 00:00:48;;;;;;;;;;;;;;;20.52;100.00;95874.38;1049213;28;19919;-77
2021/06/28 00:01:18;;;;;;;;;;;;;;;20.50;100.00;95865.78;1049181;28;19935;-77
2021/06/28 00:01:48;;;;;;;;;;;;;;;20.50;100.00;95872.00;1049155;28;20293;-77
2021/06/28 00:02:19;;;;;;;;;;;;;;;20.48;100.00;95868.84;1048761;28;19912;-77
2021/06/28 00:02:49;;;;;;;;;;;;;;;20.48;100.00;95868.03;1048959;28;19946;-77
2021/06/28 00:03:19;;;;;;;;;;;;;;;20.47;100.00;95871.88;1048539;28;20016;-77
2021/06/28 00:03:49;;;;;;;;;;;;;;;20.48;100.00;95863.41;1048832;28;19943;-77
2021/06/28 00:04:20;;;;;;;;;;;;;;;20.49;100.00;95858.75;1048603;28;19913;-78
2021/06/28 00:04:50;;;;;;;;;;;;;;;20.49;100.00;95856.06;1044835;28;19916;-78
2021/06/28 00:05:20;;;;;;;;;;;;;;;20.50;100.00;95861.13;1044694;28;20345;-77
2021/06/28 00:05:51;;;;;;;;;;;;;;;20.51;100.00;95854.56;1044819;28;19912;-78
2021/06/28 00:06:21;;;;;;;;;;;;;;;20.53;100.00;95859.69;1048803;28;19908;-78
2021/06/28 00:06:51;;;;;;;;;;;;;;;20.55;100.00;95854.69;1048844;28;19913;-77
2021/06/28 00:07:22;;;;;;;;;;;;;;;20.57;100.00;95857.06;1052889;28;20354;-78
2021/06/28 00:07:52;;;;;;;;;;;;;;;20.57;100.00;95857.84;1053235;28;19919;-78
2021/06/28 00:08:22;;;;;;;;;;;;;;;20.57;100.00;95857.84;1048697;28;20003;-78
2021/06/28 00:08:53;;;;;;;;;;;;;;;20.58;100.00;95858.69;1049183;28;19919;-78
2021/06/28 00:09:23;;;;;;;;;;;;;;;20.59;100.00;95860.25;1047020;28;19935;-78
2021/06/28 00:09:54;;;;;;;;;;;;;;;20.60;100.00;95857.19;1046349;28;19916;-78
2021/06/28 00:10:25;;;;;;;;;;;;;;;20.61;100.00;95855.28;1044986;28;19955;-78
2021/06/28 00:10:55;;;;;;;;;;;;;;;20.61;100.00;95861.50;1044730;28;19917;-77
2021/06/28 00:11:26;;;;;;;;;;;;;;;20.61;100.00;95852.56;1044680;28;20389;-78
2021/06/28 00:11:56;;;;;;;;;;;;;;;20.60;100.00;95859.91;1044847;28;19916;-78
2021/06/28 00:12:27;;;;;;;;;;;;;;;20.61;100.00;95861.50;1044682;28;19917;-78
2021/06/28 00:12:57;;;;;;;;;;;;;;;20.64;100.00;95860.03;1044778;28;19955;-77
2021/06/28 00:13:28;;;;;;;;;;;;;;;20.63;100.00;95859.25;1044850;28;19974;-78
2021/06/28 00:13:58;;;;;;;;;;;;;;;20.64;100.00;95857.31;1044998;28;19920;-78
2021/06/28 00:14:28;;;;;;;;;;;;;;;20.64;100.00;95863.53;1044551;28;19917;-78
2021/06/28 00:14:58;;;;;;;;;;;;;;;20.64;100.00;95855.41;1044803;28;19920;-77
2021/06/28 00:15:30;;;;;;;;;;;;;;;20.65;100.00;95861.63;1044578;28;19916;-78
2021/06/28 00:16:01;;;;;;;;;;;;;;;20.65;100.00;95861.63;1044827;28;20405;-78
2021/06/28 00:16:31;;;;;;;;;;;;;;;20.65;100.00;95859.69;1045015;28;19948;-78
2021/06/28 00:17:01;;;;;;;;;;;;;;;20.66;100.00;95866.69;1044596;28;19913;-78
2021/06/28 00:17:31;;;;;;;;;;;;;;;20.65;100.00;95862.41;1040340;28;20008;-78
2021/06/28 00:18:02;;;;;;;;;;;;;;;20.66;100.00;95866.69;1036563;28;19920;-78
2021/06/28 00:18:32;;;;;;;;;;;;;;;20.67;100.00;95862.06;1036455;28;20408;-78
2021/06/28 00:19:03;;;;;;;;;;;;;;;20.66;100.00;95863.19;1036564;28;20358;-78
2021/06/28 00:19:33;;;;;;;;;;;;;;;20.63;100.00;95859.25;1041759;28;19913;-78
2021/06/28 00:20:04;;;;;;;;;;;;;;;20.63;100.00;95861.19;1048877;28;19982;-78
2021/06/28 00:20:34;;;;;;;;;;;;;;;20.63;100.00;95853.81;1044737;28;19936;-78
2021/06/28 00:21:05;;;;;;;;;;;;;;;20.65;100.00;95854.25;1048923;28;19923;-78
2021/06/28 00:21:38;;;;;;;;;;;;;;;20.65;100.00;95861.63;1044438;28;20000;-78
2021/06/28 00:22:08;;;;;;;;;;;;;;;20.64;100.00;95858.13;1045237;28;19917;-78
2021/06/28 00:22:39;;;;;;;;;;;;;;;20.63;100.00;95858.47;1048826;28;19978;-78
2021/06/28 00:23:09;;;;;;;;;;;;;;;20.64;100.00;95857.31;1048872;28;19919;-78
2021/06/28 00:23:39;;;;;;;;;;;;;;;20.63;100.00;95853.81;1048716;28;19955;-78
2021/06/28 00:24:10;;;;;;;;;;;;;;;20.61;100.00;95855.28;1048838;28;19912;-77
2021/06/28 00:24:40;;;;;;;;;;;;;;;20.61;100.00;95856.06;1044617;28;19909;-78
2021/06/28 00:25:11;;;;;;;;;;;;;;;20.61;100.00;95860.69;1044620;28;20378;-78
2021/06/28 00:25:41;;;;;;;;;;;;;;;20.57;100.00;95855.16;1048754;28;19912;-78
2021/06/28 00:26:11;;;;;;;;;;;;;;;20.53;100.00;95859.69;1048857;28;19909;-78
2021/06/28 00:26:42;;;;;;;;;;;;;;;20.50;100.00;95861.13;1049098;28;19919;-78
2021/06/28 00:27:12;;;;;;;;;;;;;;;20.49;100.00;95862.28;1049123;28;19963;-78
2021/06/28 00:27:42;;;;;;;;;;;;;;;20.51;100.00;95857.28;1049124;28;19912;-78
2021/06/28 00:28:13;;;;;;;;;;;;;;;20.54;100.00;95852.34;1048813;28;20479;-78
2021/06/28 00:28:43;;;;;;;;;;;;;;;20.51;100.00;95846.44;1048882;28;20413;-78
2021/06/28 00:29:13;;;;;;;;;;;;;;;20.50;100.00;95850.28;1048685;28;20320;-78
2021/06/28 00:29:43;;;;;;;;;;;;;;;20.48;100.00;95849.84;1048672;28;19927;-78
2021/06/28 00:30:15;;;;;;;;;;;;;;;20.45;100.00;95849.66;1048806;28;19927;-78
2021/06/28 00:30:45;;;;;;;;;;;;;;;20.43;100.00;95844.59;1048795;28;19916;-78
2021/06/28 00:31:15;;;;;;;;;;;;;;;20.39;100.00;95843.66;1049096;28;20419;-78
2021/06/28 00:31:46;;;;;;;;;;;;;;;20.38;100.00;95846.72;1048948;28;20345;-78
2021/06/28 00:32:16;;;;;;;;;;;;;;;20.34;100.00;95838.47;1049044;28;19912;-78
2021/06/28 00:32:47;;;;;;;;;;;;;;;20.34;100.00;95843.88;1049107;28;20003;-78
2021/06/28 00:33:18;;;;;;;;;;;;;;;20.33;100.00;95836.09;1048994;28;19916;-78
2021/06/28 00:33:48;;;;;;;;;;;;;;;20.28;100.00;95837.09;1048965;28;19927;-78
2021/06/28 00:34:18;;;;;;;;;;;;;;;20.27;100.00;95830.09;1048870;28;20333;-78
2021/06/28 00:34:48;;;;;;;;;;;;;;;20.26;100.00;95840.13;1049003;28;19924;-78
2021/06/28 00:35:20;;;;;;;;;;;;;;;20.25;100.00;95840.47;1049032;28;19915;-78
2021/06/28 00:35:51;;;;;;;;;;;;;;;20.25;100.00;95835.81;1049059;28;20027;-78
2021/06/28 00:36:21;;;;;;;;;;;;;;;20.25;100.00;95838.53;1048875;28;20359;-78
2021/06/28 00:36:51;;;;;;;;;;;;;;;20.25;100.00;95846.69;1049124;28;19913;-78
2021/06/28 00:37:21;;;;;;;;;;;;;;;20.21;100.00;95837.63;1052738;28;19908;-78
2021/06/28 00:37:52;;;;;;;;;;;;;;;20.21;100.00;95844.97;1052723;28;19948;-78
2021/06/28 00:38:22;;;;;;;;;;;;;;;20.20;100.00;95848.81;1052728;28;19912;-78
2021/06/28 00:38:52;;;;;;;;;;;;;;;20.17;100.00;95842.16;1052887;28;20351;-78
2021/06/28 00:39:23;;;;;;;;;;;;;;;20.17;100.00;95846.78;1048921;28;20059;-78
2021/06/28 00:39:53;;;;;;;;;;;;;;;20.16;100.00;95845.97;1049131;28;19912;-78
2021/06/28 00:40:23;;;;;;;;;;;;;;;20.15;100.00;95846.31;1048974;28;19920;-78
2021/06/28 00:40:53;;;;;;;;;;;;;;;20.15;100.00;95838.19;1048860;28;19920;-78
2021/06/28 00:41:24;;;;;;;;;;;;;;;20.12;100.00;95842.38;1048999;28;19917;-78
2021/06/28 00:41:54;;;;;;;;;;;;;;;20.14;100.00;95837.38;1049048;28;19912;-78
2021/06/28 00:42:25;;;;;;;;;;;;;;;20.13;100.00;95835.81;1048873;28;19947;-78
2021/06/28 00:42:55;;;;;;;;;;;;;;;20.14;100.00;95842.81;1049041;28;20002;-77
2021/06/28 00:43:26;;;;;;;;;;;;;;;20.16;100.00;95835.13;1048944;28;19930;-78
2021/06/28 00:43:56;;;;;;;;;;;;;;;20.16;100.00;95826.97;1048934;28;19913;-78
2021/06/28 00:44:26;;;;;;;;;;;;;;;20.17;100.00;95831.31;1048793;28;19912;-78
2021/06/28 00:44:56;;;;;;;;;;;;;;;20.16;100.00;95829.69;1049052;28;19912;-77
2021/06/28 00:45:27;;;;;;;;;;;;;;;20.19;100.00;95822.81;1048908;28;20467;-78
2021/06/28 00:45:58;;;;;;;;;;;;;;;20.21;100.00;95823.25;1049022;28;19967;-78
2021/06/28 00:46:28;;;;;;;;;;;;;;;20.19;100.00;95826.31;1048950;28;19979;-78
2021/06/28 00:46:58;;;;;;;;;;;;;;;20.19;100.00;95826.31;1049042;28;19912;-78
2021/06/28 00:47:28;;;;;;;;;;;;;;;20.25;100.00;95821.47;1049018;28;20365;-78
2021/06/28 00:48:00;;;;;;;;;;;;;;;20.28;100.00;95828.16;1049015;28;19930;-78
2021/06/28 00:48:30;;;;;;;;;;;;;;;20.26;100.00;95825.75;1048854;28;19952;-79
2021/06/28 00:49:00;;;;;;;;;;;;;;;20.24;100.00;95828.81;1049039;28;20365;-79
2021/06/28 00:49:30;;;;;;;;;;;;;;;20.23;100.00;95829.97;1048969;28;19912;-79
2021/06/28 00:50:01;;;;;;;;;;;;;;;20.23;100.00;95829.16;1048951;28;19922;-78
2021/06/28 00:50:31;;;;;;;;;;;;;;;20.24;100.00;95830.75;1048744;28;19924;-78
2021/06/28 00:51:02;;;;;;;;;;;;;;;20.24;100.00;95831.53;1048995;28;20053;-78
2021/06/28 00:51:32;;;;;;;;;;;;;;;20.24;100.00;95834.25;1048581;28;19909;-78
2021/06/28 00:52:02;;;;;;;;;;;;;;;20.28;100.00;95833.59;1044588;28;20380;-78
2021/06/28 00:52:32;;;;;;;;;;;;;;;20.30;100.00;95839.47;1044499;28;19919;-77
2021/06/28 00:53:07;;;;;;;;;;;;;;;20.29;100.00;95833.25;1044631;28;20506;-78
2021/06/28 00:53:37;;;;;;;;;;;;;;;20.33;100.00;95838.81;1048601;28;20011;-78
2021/06/28 00:54:07;;;;;;;;;;;;;;;20.31;100.00;95836.41;1048789;28;20000;-78
2021/06/28 00:54:38;;;;;;;;;;;;;;;20.33;100.00;95836.09;1048537;28;20006;-78
2021/06/28 00:55:09;;;;;;;;;;;;;;;20.32;100.00;95834.47;1044560;28;19924;-78
2021/06/28 00:55:39;;;;;;;;;;;;;;;20.33;100.00;95841.50;1044602;28;19908;-78
2021/06/28 00:56:10;;;;;;;;;;;;;;;20.34;100.00;95840.38;1044713;28;20015;-78
2021/06/28 00:56:40;;;;;;;;;;;;;;;20.35;100.00;95839.25;1048665;28;20041;-78
2021/06/28 00:57:10;;;;;;;;;;;;;;;20.34;100.00;95838.47;1049065;28;19917;-78
2021/06/28 00:57:40;;;;;;;;;;;;;;;20.36;100.00;95833.47;1048781;28;19912;-78
2021/06/28 00:58:11;;;;;;;;;;;;;;;20.40;100.00;95834.41;1048894;28;19959;-78
2021/06/28 00:58:41;;;;;;;;;;;;;;;20.41;100.00;95830.53;1048879;28;20384;-78
2021/06/28 00:59:12;;;;;;;;;;;;;;;20.43;100.00;95832.94;1048830;28;20011;-78
2021/06/28 00:59:43;;;;;;;;;;;;;;;20.41;100.00;95829.75;1048390;28;19913;-78
2021/06/28 01:00:13;;;;;;;;;;;;;;;20.42;100.00;95834.06;1048621;28;19958;-78
2021/06/28 01:00:44;;;;;;;;;;;;;;;20.44;100.00;95834.53;1048605;28;20019;-79
2021/06/28 01:01:15;;;;;;;;;;;;;;;20.42;100.00;95832.16;1048524;28;19916;-78
2021/06/28 01:01:45;;;;;;;;;;;;;;;20.40;100.00;95841.75;1048726;28;19923;-78
2021/06/28 01:02:15;;;;;;;;;;;;;;;20.39;100.00;95829.31;1048861;28;20288;-78
2021/06/28 01:02:46;;;;;;;;;;;;;;;20.39;100.00;95837.44;1049031;28;19950;-78
2021/06/28 01:03:16;;;;;;;;;;;;;;;20.40;100.00;95836.31;1048907;28;19917;-78
2021/06/28 01:03:46;;;;;;;;;;;;;;;20.40;100.00;95836.31;1048945;28;19912;-78
2021/06/28 01:04:17;;;;;;;;;;;;;;;20.38;100.00;95842.09;1048912;28;19966;-78
2021/06/28 01:04:47;;;;;;;;;;;;;;;20.36;100.00;95841.63;1048868;28;19956;-78
2021/06/28 01:05:18;;;;;;;;;;;;;;;20.35;100.00;95842.75;1048793;28;19963;-78
2021/06/28 01:05:48;;;;;;;;;;;;;;;20.35;100.00;95844.69;1048977;28;19912;-78
2021/06/28 01:06:18;;;;;;;;;;;;;;;20.34;100.00;95853.94;1048942;28;20254;-78
2021/06/28 01:06:49;;;;;;;;;;;;;;;20.33;100.00;95850.44;1049058;28;20014;-78
2021/06/28 01:07:19;;;;;;;;;;;;;;;20.32;100.00;95846.16;1048923;28;19913;-78
2021/06/28 01:07:49;;;;;;;;;;;;;;;20.32;100.00;95854.28;1048892;28;19912;-78
2021/06/28 01:08:19;;;;;;;;;;;;;;;20.32;100.00;95848.03;1048897;28;19927;-78
2021/06/28 01:08:50;;;;;;;;;;;;;;;20.31;100.00;95849.19;1048914;28;19951;-78
2021/06/28 01:09:20;;;;;;;;;;;;;;;20.31;100.00;95846.47;1048786;28;20306;-78
2021/06/28 01:09:50;;;;;;;;;;;;;;;20.28;100.00;95847.16;1047033;28;19912;-79
2021/06/28 01:10:21;;;;;;;;;;;;;;;20.26;100.00;95842.03;1048224;28;19921;-77
2021/06/28 01:10:51;;;;;;;;;;;;;;;20.23;100.00;95848.16;1048566;28;20073;-78
2021/06/28 01:11:21;;;;;;;;;;;;;;;20.22;100.00;95844.66;1048420;28;19998;-78
2021/06/28 01:11:51;;;;;;;;;;;;;;;20.24;100.00;95847.03;1048508;28;19912;-77
2021/06/28 01:12:22;;;;;;;;;;;;;;;20.23;100.00;95843.53;1048810;28;19958;-78
2021/06/28 01:12:52;;;;;;;;;;;;;;;20.23;100.00;95853.59;1048823;28;19960;-79
2021/06/28 01:13:22;;;;;;;;;;;;;;;20.20;100.00;95846.91;1048696;28;19917;-78
2021/06/28 01:13:53;;;;;;;;;;;;;;;20.17;100.00;95853.00;1048885;28;19912;-78
2021/06/28 01:14:24;;;;;;;;;;;;;;;20.19;100.00;95852.66;1052715;28;20564;-77
2021/06/28 01:14:54;;;;;;;;;;;;;;;20.19;100.00;95850.75;1052669;28;19919;-78
2021/06/28 01:15:24;;;;;;;;;;;;;;;20.19;100.00;95858.88;1052618;28;20284;-77
2021/06/28 01:15:55;;;;;;;;;;;;;;;20.19;100.00;95856.16;1052537;28;19951;-78
2021/06/28 01:16:25;;;;;;;;;;;;;;;20.19;100.00;95858.88;1048819;28;19920;-78
2021/06/28 01:16:55;;;;;;;;;;;;;;;20.19;100.00;95855.38;1048847;28;19916;-78
2021/06/28 01:17:25;;;;;;;;;;;;;;;20.18;100.00;95867.38;1048762;28;19995;-78
2021/06/28 01:17:56;;;;;;;;;;;;;;;20.17;100.00;95860.34;1048812;28;19919;-78
2021/06/28 01:18:26;;;;;;;;;;;;;;;20.16;100.00;95864.16;1048444;28;20429;-78
2021/06/28 01:18:56;;;;;;;;;;;;;;;20.14;100.00;95869.94;1048390;28;19924;-78
2021/06/28 01:19:27;;;;;;;;;;;;;;;20.13;100.00;95881.94;1048682;28;19916;-78
2021/06/28 01:19:59;;;;;;;;;;;;;;;20.14;100.00;95877.28;1048553;28;19919;-78
2021/06/28 01:20:29;;;;;;;;;;;;;;;20.17;100.00;95869.28;1048666;28;19916;-78
2021/06/28 01:21:00;;;;;;;;;;;;;;;20.10;100.00;95879.88;1052904;28;20337;-78
2021/06/28 01:21:30;;;;;;;;;;;;;;;20.12;100.00;95884.97;1052644;28;19908;-78
2021/06/28 01:22:01;;;;;;;;;;;;;;;20.09;100.00;95889.13;1052689;28;19916;-78
2021/06/28 01:22:31;;;;;;;;;;;;;;;20.00;100.00;95888.41;1052210;28;19927;-77
2021/06/28 01:23:11;;;;;;;;;;;;;;;19.98;100.00;95901.53;1048534;28;19923;-78
2021/06/28 01:23:41;;;;;;;;;;;;;;;19.94;100.00;95898.69;1045821;28;19955;-78
2021/06/28 01:24:11;;;;;;;;;;;;;;;19.91;100.00;95903.97;1048382;28;19920;-77
2021/06/28 01:24:42;;;;;;;;;;;;;;;19.88;100.00;95899.22;1048629;28;19919;-77
2021/06/28 01:25:13;;;;;;;;;;;;;;;19.89;100.00;95903.50;1048458;28;20372;-78
2021/06/28 01:25:44;;;;;;;;;;;;;;;19.83;100.00;95896.72;1048952;28;19912;-78
2021/06/28 01:26:14;;;;;;;;;;;;;;;19.81;100.00;95896.22;1048679;28;19916;-78
2021/06/28 01:26:45;;;;;;;;;;;;;;;19.84;100.00;95887.44;1048653;28;20026;-77
2021/06/28 01:27:15;;;;;;;;;;;;;;;19.81;100.00;95890.81;1048300;28;19923;-78
2021/06/28 01:27:45;;;;;;;;;;;;;;;19.78;100.00;95889.56;1044414;28;19913;-78
2021/06/28 01:28:15;;;;;;;;;;;;;;;19.82;100.00;95889.69;1044190;28;20353;-78
2021/06/28 01:28:46;;;;;;;;;;;;;;;19.81;100.00;95893.50;1044391;28;20039;-78
2021/06/28 01:29:16;;;;;;;;;;;;;;;19.81;100.00;95897.03;1048517;28;20282;-78
2021/06/28 01:29:46;;;;;;;;;;;;;;;19.81;100.00;95896.22;1048909;28;19913;-78
2021/06/28 01:30:17;;;;;;;;;;;;;;;19.77;100.00;95898.03;1048510;28;19966;-78
2021/06/28 01:30:48;;;;;;;;;;;;;;;19.74;100.00;95899.47;1048598;28;19912;-78
2021/06/28 01:31:18;;;;;;;;;;;;;;;19.73;100.00;95898.69;1048580;28;19921;-78
2021/06/28 01:31:48;;;;;;;;;;;;;;;19.71;100.00;95900.94;1048718;28;19916;-78
2021/06/28 01:32:19;;;;;;;;;;;;;;;19.72;100.00;95905.25;1048630;28;19994;-78
2021/06/28 01:32:50;;;;;;;;;;;;;;;19.72;100.00;95897.09;1048832;28;19913;-78
2021/06/28 01:33:20;;;;;;;;;;;;;;;19.64;100.00;95897.16;1048797;28;19966;-78
2021/06/28 01:33:50;;;;;;;;;;;;;;;19.62;100.00;95899.41;1048683;28;19927;-79
2021/06/28 01:34:20;;;;;;;;;;;;;;;19.60;100.00;95912.50;1048638;28;20380;-77
2021/06/28 01:34:51;;;;;;;;;;;;;;;19.65;100.00;95904.16;1048889;28;19914;-77
2021/06/28 01:35:21;;;;;;;;;;;;;;;19.62;100.00;95905.63;1048371;28;20316;-77
2021/06/28 01:35:51;;;;;;;;;;;;;;;19.62;100.00;95908.34;1048625;28;20361;-78
2021/06/28 01:36:22;;;;;;;;;;;;;;;19.60;100.00;95913.28;1048345;28;19978;-77
2021/06/28 01:36:52;;;;;;;;;;;;;;;19.59;100.00;95903.56;1048609;28;19904;-78
2021/06/28 01:37:23;;;;;;;;;;;;;;;19.57;100.00;95905.78;1048826;28;20011;-78
2021/06/28 01:37:53;;;;;;;;;;;;;;;19.57;100.00;95905.78;1048892;28;19909;-78
2021/06/28 01:38:23;;;;;;;;;;;;;;;19.59;100.00;95906.28;1048474;28;20428;-77
2021/06/28 01:38:54;;;;;;;;;;;;;;;19.58;100.00;95901.94;1048529;28;19909;-78
2021/06/28 01:39:24;;;;;;;;;;;;;;;19.58;100.00;95910.09;1048476;28;19916;-77
2021/06/28 01:39:55;;;;;;;;;;;;;;;19.56;100.00;95906.91;1048596;28;20344;-78
2021/06/28 01:40:25;;;;;;;;;;;;;;;19.55;100.00;95905.34;1048305;28;19920;-78
2021/06/28 01:40:56;;;;;;;;;;;;;;;19.57;100.00;95910.41;1044432;28;19919;-78
2021/06/28 01:41:26;;;;;;;;;;;;;;;19.57;100.00;95907.72;1040238;28;20007;-78
2021/06/28 01:41:56;;;;;;;;;;;;;;;19.58;100.00;95903.88;1040331;28;19910;-78
2021/06/28 01:42:27;;;;;;;;;;;;;;;19.57;100.00;95897.66;1036173;28;19910;-77
2021/06/28 01:42:57;;;;;;;;;;;;;;;19.57;100.00;95905.78;1040237;28;20364;-78
2021/06/28 01:43:27;;;;;;;;;;;;;;;19.59;100.00;95903.56;1044343;28;19948;-78
2021/06/28 01:43:57;;;;;;;;;;;;;;;19.61;100.00;95897.84;1044357;28;19905;-78
2021/06/28 01:44:28;;;;;;;;;;;;;;;19.58;100.00;95896.53;1048471;28;19962;-78
2021/06/28 01:44:58;;;;;;;;;;;;;;;19.59;100.00;95895.44;1048442;28;19946;-78
2021/06/28 01:45:28;;;;;;;;;;;;;;;19.55;100.00;95902.63;1048277;28;19931;-77
2021/06/28 01:45:58;;;;;;;;;;;;;;;19.56;100.00;95900.72;1048510;28;19924;-78
2021/06/28 01:46:29;;;;;;;;;;;;;;;19.57;100.00;95894.94;1048827;28;20055;-77
2021/06/28 01:46:59;;;;;;;;;;;;;;;19.56;100.00;95893.38;1048736;28;19912;-77
2021/06/28 01:47:30;;;;;;;;;;;;;;;19.56;100.00;95898.00;1044288;28;19909;-78
2021/06/28 01:48:00;;;;;;;;;;;;;;;19.56;100.00;95898.78;1040371;28;19906;-78
2021/06/28 01:48:30;;;;;;;;;;;;;;;19.53;100.00;95894.00;1040287;28;20531;-77
2021/06/28 01:49:01;;;;;;;;;;;;;;;19.53;100.00;95891.31;1039974;28;19905;-78
2021/06/28 01:49:31;;;;;;;;;;;;;;;19.53;100.00;95904.06;1044027;28;19913;-77
2021/06/28 01:50:01;;;;;;;;;;;;;;;19.51;100.00;95903.63;1048436;28;19958;-78
2021/06/28 01:50:32;;;;;;;;;;;;;;;19.51;100.00;95895.47;1040073;28;19916;-77
2021/06/28 01:51:04;;;;;;;;;;;;;;;19.51;100.00;95896.28;1040199;28;20329;-78
2021/06/28 01:51:34;;;;;;;;;;;;;;;19.51;100.00;95901.69;1044192;28;20413;-77
2021/06/28 01:52:05;;;;;;;;;;;;;;;19.52;100.00;95899.78;1040489;28;19909;-77
2021/06/28 01:52:35;;;;;;;;;;;;;;;19.52;100.00;95903.28;1048394;28;20051;-78
2021/06/28 01:53:05;;;;;;;;;;;;;;;19.53;100.00;95904.06;1048296;28;19909;-78
2021/06/28 01:53:36;;;;;;;;;;;;;;;19.52;100.00;95897.84;1044252;28;19944;-78
2021/06/28 01:54:06;;;;;;;;;;;;;;;19.56;100.00;95900.72;1044318;28;19995;-78
2021/06/28 01:54:36;;;;;;;;;;;;;;;19.55;100.00;95899.09;1044213;28;20344;-77
2021/06/28 01:55:08;;;;;;;;;;;;;;;19.57;100.00;95905.78;1044359;28;19992;-77
2021/06/28 01:55:38;;;;;;;;;;;;;;;19.57;100.00;95894.94;1048536;28;19987;-78
2021/06/28 01:56:08;;;;;;;;;;;;;;;19.54;100.00;95897.50;1048887;28;20372;-77
2021/06/28 01:56:38;;;;;;;;;;;;;;;19.52;100.00;95897.84;1049630;28;19955;-78
2021/06/28 01:57:09;;;;;;;;;;;;;;;19.52;100.00;95892.44;1049793;28;19916;-78
2021/06/28 01:57:42;;;;;;;;;;;;;;;19.54;100.00;95900.22;1049883;28;19911;-77
2021/06/28 01:58:13;;;;;;;;;;;;;;;19.54;100.00;95903.72;1049702;28;19908;-78
2021/06/28 01:58:43;;;;;;;;;;;;;;;19.56;100.00;95898.00;1045238;28;19958;-78
2021/06/28 01:59:14;;;;;;;;;;;;;;;19.54;100.00;95898.31;1041461;28;19913;-77
2021/06/28 01:59:44;;;;;;;;;;;;;;;19.54;100.00;95892.88;1041729;28;19913;-78
2021/06/28 02:00:16;;;;;;;;;;;;;;;19.45;100.00;95892.19;1045596;28;19975;-78
2021/06/28 02:00:53;;;;;;;;;;;;;;;19.48;100.00;95891.50;1045781;28;20309;-78
2021/06/28 02:01:23;;;;;;;;;;;;;;;19.47;100.00;95895.34;1045522;28;19909;-78
2021/06/28 02:01:53;;;;;;;;;;;;;;;19.45;100.00;95903.81;1046830;28;20281;-78
2021/06/28 02:02:23;;;;;;;;;;;;;;;19.46;100.00;95897.25;1049209;28;19916;-78
2021/06/28 02:03:01;;;;;;;;;;;;;;;19.46;100.00;95891.84;1049995;28;19912;-78
2021/06/28 02:03:34;;;;;;;;;;;;;;;19.41;100.00;95891.25;1049641;28;19920;-78
2021/06/28 02:04:05;;;;;;;;;;;;;;;19.41;100.00;95893.94;1054135;28;19943;-78
2021/06/28 02:04:36;;;;;;;;;;;;;;;19.41;100.00;95889.31;1055206;28;20390;-78
2021/06/28 02:05:06;;;;;;;;;;;;;;;19.40;100.00;95887.75;1058192;28;19908;-78
2021/06/28 02:05:37;;;;;;;;;;;;;;;19.37;100.00;95885.66;1057535;28;19916;-78
2021/06/28 02:06:08;;;;;;;;;;;;;;;19.40;100.00;95892.38;1050182;28;19916;-78
2021/06/28 02:06:38;;;;;;;;;;;;;;;19.40;100.00;95879.59;1049947;28;19928;-78
2021/06/28 02:07:08;;;;;;;;;;;;;;;19.40;100.00;95884.25;1050188;28;20013;-78
2021/06/28 02:07:39;;;;;;;;;;;;;;;19.39;100.00;95885.34;1049715;28;20376;-78
2021/06/28 02:08:09;;;;;;;;;;;;;;;19.40;100.00;95879.59;1049917;28;19915;-78
2021/06/28 02:08:40;;;;;;;;;;;;;;;19.37;100.00;95879.47;1049662;28;19916;-78
2021/06/28 02:09:10;;;;;;;;;;;;;;;19.32;100.00;95882.38;1049795;28;19939;-78
2021/06/28 02:09:40;;;;;;;;;;;;;;;19.32;100.00;95894.00;1045653;28;19913;-77
2021/06/28 02:10:11;;;;;;;;;;;;;;;19.33;100.00;95883.94;1045363;28;19911;-78
2021/06/28 02:10:42;;;;;;;;;;;;;;;19.33;100.00;95894.78;1043172;28;19905;-77
2021/06/28 02:11:13;;;;;;;;;;;;;;;19.33;100.00;95886.66;1042862;28;20382;-78
2021/06/28 02:11:43;;;;;;;;;;;;;;;19.32;100.00;95891.28;1049746;28;19908;-77
2021/06/28 02:12:13;;;;;;;;;;;;;;;19.31;100.00;95899.75;1049657;28;19909;-78
2021/06/28 02:12:43;;;;;;;;;;;;;;;19.29;100.00;95893.84;1049779;28;19916;-78
2021/06/28 02:13:15;;;;;;;;;;;;;;;19.27;100.00;95894.19;1049430;28;19915;-78
2021/06/28 02:13:45;;;;;;;;;;;;;;;19.28;100.00;95894.97;1050061;28;20432;-77
2021/06/28 02:14:15;;;;;;;;;;;;;;;19.25;100.00;95899.16;1049732;28;19909;-78
2021/06/28 02:14:46;;;;;;;;;;;;;;;19.25;100.00;95901.06;1049796;28;19913;-78
2021/06/28 02:15:19;;;;;;;;;;;;;;;19.23;100.00;95901.38;1049544;28;20359;-78
2021/06/28 02:15:50;;;;;;;;;;;;;;;19.21;100.00;95899.00;1049854;28;19935;-78
2021/06/28 02:16:20;;;;;;;;;;;;;;;19.19;100.00;95906.66;1049963;28;19962;-77
2021/06/28 02:16:50;;;;;;;;;;;;;;;19.20;100.00;95900.13;1054084;28;20599;-78
2021/06/28 02:17:21;;;;;;;;;;;;;;;19.17;100.00;95897.25;1049332;28;20007;-78
2021/06/28 02:17:51;;;;;;;;;;;;;;;19.17;100.00;95906.19;1049901;28;19917;-78
2021/06/28 02:18:23;;;;;;;;;;;;;;;19.15;100.00;95899.50;1049386;28;19913;-78
2021/06/28 02:18:53;;;;;;;;;;;;;;;19.15;100.00;95894.88;1045929;28;20285;-78
2021/06/28 02:19:25;;;;;;;;;;;;;;;19.16;100.00;95895.69;1049890;28;19913;-78
2021/06/28 02:19:55;;;;;;;;;;;;;;;19.17;100.00;95889.13;1049998;28;19950;-78
2021/06/28 02:20:25;;;;;;;;;;;;;;;19.19;100.00;95895.00;1049705;28;19969;-78
2021/06/28 02:20:56;;;;;;;;;;;;;;;19.16;100.00;95896.47;1049861;28;19913;-77
2021/06/28 02:21:27;;;;;;;;;;;;;;;19.14;100.00;95893.31;1049584;28;19915;-78
2021/06/28 02:21:57;;;;;;;;;;;;;;;19.13;100.00;95899.03;1050204;28;19982;-78
2021/06/28 02:22:28;;;;;;;;;;;;;;;19.12;100.00;95897.44;1053534;28;20421;-78
2021/06/28 02:23:10;;;;;;;;;;;;;;;19.11;100.00;95899.38;1053899;28;19985;-78
2021/06/28 02:23:41;;;;;;;;;;;;;;;19.12;100.00;95890.13;1049702;28;20439;-78
2021/06/28 02:24:11;;;;;;;;;;;;;;;19.10;100.00;95895.06;1045266;28;19913;-77
2021/06/28 02:24:41;;;;;;;;;;;;;;;19.09;100.00;95892.66;1045337;28;19924;-78
2021/06/28 02:25:12;;;;;;;;;;;;;;;19.06;100.00;95894.13;1045597;28;19917;-78
2021/06/28 02:25:42;;;;;;;;;;;;;;;19.08;100.00;95894.59;1049787;28;19924;-79
2021/06/28 02:26:12;;;;;;;;;;;;;;;19.11;100.00;95890.44;1049647;28;20379;-77
2021/06/28 02:26:43;;;;;;;;;;;;;;;19.10;100.00;95891.56;1049680;28;19924;-78
2021/06/28 02:27:13;;;;;;;;;;;;;;;19.08;100.00;95891.09;1045247;28;20007;-79
2021/06/28 02:27:43;;;;;;;;;;;;;;;19.08;100.00;95886.47;1045634;28;19952;-78
2021/06/28 02:28:14;;;;;;;;;;;;;;;19.12;100.00;95895.53;1049688;28;19908;-78
2021/06/28 02:28:45;;;;;;;;;;;;;;;19.12;100.00;95890.13;1049651;28;19973;-78
2021/06/28 02:29:15;;;;;;;;;;;;;;;19.09;100.00;95892.66;1050145;28;19919;-78
2021/06/28 02:29:45;;;;;;;;;;;;;;;19.09;100.00;95890.78;1049819;28;19927;-77
2021/06/28 02:30:16;;;;;;;;;;;;;;;19.07;100.00;95890.31;1049696;28;19915;-78
2021/06/28 02:30:46;;;;;;;;;;;;;;;19.06;100.00;95888.72;1049751;28;19916;-77
2021/06/28 02:31:19;;;;;;;;;;;;;;;19.06;100.00;95890.63;1049498;28;19916;-78
2021/06/28 02:31:49;;;;;;;;;;;;;;;19.04;100.00;95885.56;1049868;28;19923;-77
2021/06/28 02:32:19;;;;;;;;;;;;;;;19.03;100.00;95892.06;1049291;28;19917;-78
2021/06/28 02:32:50;;;;;;;;;;;;;;;19.03;100.00;95892.06;1045434;28;20042;-78
2021/06/28 02:33:20;;;;;;;;;;;;;;;19.05;100.00;95895.25;1045373;28;19939;-78
2021/06/28 02:33:51;;;;;;;;;;;;;;;19.01;100.00;95891.59;1049634;28;20023;-78
2021/06/28 02:34:21;;;;;;;;;;;;;;;19.05;100.00;95897.97;1049766;28;19924;-77
2021/06/28 02:34:51;;;;;;;;;;;;;;;19.07;100.00;95895.72;1049999;28;19920;-77
2021/06/28 02:35:23;;;;;;;;;;;;;;;19.05;100.00;95892.56;1049385;28;20246;-77
2021/06/28 02:35:54;;;;;;;;;;;;;;;19.05;100.00;95894.47;1050126;28;19921;-77
2021/06/28 02:36:25;;;;;;;;;;;;;;;19.03;100.00;95892.06;1049455;28;19916;-77
2021/06/28 02:36:55;;;;;;;;;;;;;;;19.03;100.00;95897.47;1049757;28;20381;-78